• Join FlightAware (Why Join?)
  • Login
  • US Flag 
06:53AM EDT


 

Airport Tracker/Info


-or-


 

Live Flight TrackerFlight Track Log ✈ GTX653 ✈ 04-Mar-2014 ✈ KADS - KEDC

Flight Track Log - Related Links

Times and Time Zones

All times are in EST time to prevent confusion due to time zone crossing. See the GTX653 flight status page for this flight to view local times or setup timezone preferences in your user account.

Time Position Orientation Groundspeed Altitude Reporting Facility
EST Latitude Longitude Course Direction KTS MPH feet Rate Location/Type
12:32AM 32.9333 -96.8000 121° Southeast 137 158 2,100  Level Dallas / Fort Worth TRACON
12:33AM 32.9167 -96.7667 121° Southeast 129 148 2,500 660 Climbing Dallas / Fort Worth TRACON
12:34AM 32.9000 -96.8000 239° Southwest 128 147 3,300 660 Climbing Dallas / Fort Worth TRACON
12:35AM 32.8667 -96.8333 220° Southwest 131 151 3,900 600 Climbing Dallas / Fort Worth TRACON
12:36AM 32.8500 -96.8667 239° Southwest 137 158 4,600 600 Climbing Dallas / Fort Worth TRACON
12:37AM 32.8167 -96.8833 203° Southwest 135 155 5,200 540 Climbing Dallas / Fort Worth TRACON
12:38AM 32.7667 -96.9000 196° South 140 161 5,800 360 Climbing Dallas / Fort Worth TRACON
12:39AM 32.7333 -96.9000 180° South 153 176 6,000 60 Climbing Dallas / Fort Worth TRACON
12:40AM 32.6833 -96.9167 196° South 163 188 6,000  Level Dallas / Fort Worth TRACON
12:41AM 32.6500 -96.9333 203° Southwest 164 189 6,000  Level Dallas / Fort Worth TRACON
12:42AM 32.6133 -96.9536 205° Southwest 166 191 6,000  Level Fort Worth Center
12:43AM 32.5675 -96.9722 199° South 173 199 6,000  Level Fort Worth Center
12:44AM 32.5217 -96.9856 194° South 171 197 6,000  Level Fort Worth Center
12:45AM 32.4750 -97.0003 195° South 171 197 6,000  Level Fort Worth Center
12:46AM 32.4292 -97.0161 196° South 171 197 6,000  Level Fort Worth Center
12:47AM 32.3794 -97.0297 193° South 171 197 6,000  Level Fort Worth Center
12:48AM 32.3336 -97.0431 194° South 170 196 6,000  Level Fort Worth Center
12:49AM 32.2892 -97.0608 199° South 170 196 6,000  Level Fort Worth Center
12:50AM 32.2428 -97.0722 192° South 170 196 6,000  Level Fort Worth Center
12:51AM 32.1958 -97.0897 198° South 170 196 6,000  Level Fort Worth Center
12:52AM 32.1533 -97.1011 193° South 170 196 6,000  Level Fort Worth Center
12:53AM 32.1064 -97.1150 194° South 170 196 6,100  Climbing Fort Worth Center
12:54AM 32.0603 -97.1281 193° South 171 197 6,000 -120 Descending Fort Worth Center
12:55AM 32.0139 -97.1433 196° South 170 196 5,900  Descending Fort Worth Center
12:56AM 31.9686 -97.1589 196° South 171 197 6,000  Climbing Fort Worth Center
12:57AM 31.9228 -97.1731 195° South 171 197 6,000  Level Fort Worth Center
12:58AM 31.8753 -97.1858 193° South 171 197 6,100  Climbing Fort Worth Center
12:59AM 31.8281 -97.1978 192° South 171 197 6,100  Level Fort Worth Center
01:00AM 31.7797 -97.2100 192° South 172 198 6,100  Level Fort Worth Center
01:01AM 31.7317 -97.2242 194° South 173 199 6,100 -60 Level Fort Worth Center
01:02AM 31.6844 -97.2372 193° South 173 199 6,000  Descending Fort Worth Center
01:03AM 31.6369 -97.2508 194° South 173 199 6,100 60 Climbing Fort Worth Center
01:03AM 31.6064 -97.2592 193° South 174 200 6,100  Level Fort Worth Center
01:03AM 31.6025 -97.2622 214° Southwest 174 200 6,100  Level Fort Worth Center
01:04AM 31.5889 -97.2636 185° South 173 199 6,100  Level Fort Worth Center
01:04AM 31.5511 -97.2733 192° South 176 203 6,100  Level Fort Worth Center
01:05AM 31.5406 -97.2753 189° South 174 200 6,100  Level Fort Worth Center
01:05AM 31.5061 -97.2836 192° South 175 201 6,100  Level Fort Worth Center
01:06AM 31.4925 -97.2872 193° South 174 200 6,100 -120 Level Fort Worth Center
01:07AM 31.4569 -97.2967 193° South 175 201 6,000  Descending Fort Worth Center
01:07AM 31.4442 -97.2994 191° South 174 200 6,100 60 Climbing Fort Worth Center
01:08AM 31.4100 -97.3097 194° South 176 203 6,100  Level Fort Worth Center
01:08AM 31.3967 -97.3128 191° South 174 200 6,100 -120 Level Fort Worth Center
01:09AM 31.3611 -97.3228 194° South 175 201 6,000 -120 Descending Fort Worth Center
01:09AM 31.3486 -97.3267 195° South 174 200 6,000 60 Level Fort Worth Center
01:10AM 31.3144 -97.3381 196° South 176 203 6,100 60 Climbing Fort Worth Center
01:10AM 31.3006 -97.3406 189° South 174 200 6,100  Level Fort Worth Center
01:11AM 31.2633 -97.3517 194° South 177 204 6,100  Level Fort Worth Center
01:11AM 31.2522 -97.3572 203° Southwest 177 204 6,100  Level Fort Worth Center
01:12AM 31.2150 -97.3697 196° South 176 203 6,100  Level Fort Worth Center
01:12AM 31.2044 -97.3717 189° South 177 204 6,100 -120 Level Fort Worth Center
01:13AM 31.1700 -97.3797 191° South 175 201 6,000  Descending Fort Worth Center
01:13AM 31.1569 -97.3839 195° South 176 203 6,100 60 Climbing Fort Worth Center
01:14AM 31.1208 -97.3928 192° South 173 199 6,100 -120 Level Fort Worth Center
01:14AM 31.1097 -97.3972 199° South 176 203 6,000  Descending Fort Worth Center
01:15AM 31.0742 -97.4081 195° South 176 203 6,100 60 Climbing Fort Worth Center
01:15AM 31.0617 -97.4111 192° South 176 203 6,100  Level Fort Worth Center
01:16AM 31.0231 -97.4217 193° South 177 204 6,100 -120 Level Fort Worth Center
01:16AM 31.0139 -97.4264 204° Southwest 176 203 6,000 -120 Descending Fort Worth Center
01:17AM 30.9786 -97.4364 194° South 177 204 6,000  Level Fort Worth Center
01:17AM 30.9664 -97.4411 198° South 176 203 6,000 60 Level Fort Worth Center
01:18AM 30.9183 -97.4533 192° South 176 203 6,100  Climbing Fort Worth Center
01:19AM 30.8703 -97.4658 193° South 176 203 6,100 -60 Level Fort Worth Center
01:20AM 30.8225 -97.4786 193° South 176 203 6,000 -120 Descending Fort Worth Center
01:21AM 30.7736 -97.4889 190° South 176 203 5,900 -480 Descending Fort Worth Center
01:22AM 30.7150 -97.5031 192° South 181 208 5,000 -780 Descending Houston Center
01:23AM 30.6631 -97.5169 193° South 187 215 4,200 -720 Descending Houston Center
01:24AM 30.6125 -97.5264 189° South 187 215 3,600 -600 Descending Houston Center
01:25AM 30.5639 -97.5356 189° South 182 209 3,000 -540 Descending Houston Center
01:26AM 30.5181 -97.5467 192° South 173 199 2,600 -300 Descending Houston Center
01:27AM 30.4742 -97.5539 188° South 164 189 2,400 -300 Descending Houston Center
01:28AM 30.4347 -97.5756 205° Southwest 159 183 2,000 -720 Descending Houston Center
01:29AM 30.4131 -97.5836 198° South 152 175 1,000 -540 Descending Houston Center
01:30AM 30.3889 -97.5589 139° Southeast 146 168 1,000  Level Houston Center